createdAt,value
2022-09-15T00:03:00.541Z,18.28
2022-09-15T00:08:02.855Z,18.28
2022-09-15T00:13:04.189Z,18.30
2022-09-15T00:18:06.478Z,18.13
2022-09-15T00:23:08.053Z,18.27
2022-09-15T00:28:09.539Z,18.16
2022-09-15T00:33:11.624Z,18.07
2022-09-15T00:38:13.702Z,17.73
2022-09-15T00:43:16.014Z,18.02
2022-09-15T00:48:18.886Z,18.01
2022-09-15T00:53:20.415Z,17.78
2022-09-15T00:58:46.866Z,18.06
2022-09-15T01:03:48.667Z,18.22
2022-09-15T01:08:53.886Z,18.33
2022-09-15T01:13:55.456Z,18.21
2022-09-15T01:19:11.847Z,17.99
2022-09-15T01:24:43.874Z,18.17
2022-09-15T01:29:51.960Z,17.64
2022-09-15T01:35:13.511Z,17.74
2022-09-15T01:40:15.114Z,18.09
2022-09-15T01:45:19.701Z,18.14
2022-09-15T01:50:23.895Z,18.25
2022-09-15T01:55:41.658Z,18.27
2022-09-15T02:00:45.490Z,18.47
2022-09-15T02:05:51.185Z,18.17
2022-09-15T02:10:58.731Z,18.08
2022-09-15T02:16:00.376Z,17.81
2022-09-15T02:21:10.654Z,17.94
2022-09-15T02:26:14.098Z,18.06
2022-09-15T02:31:16.599Z,18.24
2022-09-15T02:36:19.795Z,18.41
2022-09-15T02:41:21.280Z,18.04
2022-09-15T02:46:22.919Z,17.76
2022-09-15T02:51:24.467Z,17.91
2022-09-15T02:56:25.951Z,18.21
2022-09-15T03:01:31.760Z,18.68
2022-09-15T03:06:36.324Z,18.95
2022-09-15T03:11:37.798Z,19.05
2022-09-15T03:16:39.319Z,18.19
2022-09-15T03:21:40.849Z,18.28
2022-09-15T03:26:42.310Z,18.21
2022-09-15T03:31:44.136Z,18.29
2022-09-15T03:36:45.644Z,18.13
2022-09-15T03:41:47.119Z,18.02
2022-09-15T03:46:48.611Z,17.88
2022-09-15T03:51:50.491Z,18.13
2022-09-15T03:56:52.051Z,18.04
2022-09-15T04:01:53.584Z,18.00
2022-09-15T04:06:55.072Z,17.75
2022-09-15T04:11:56.799Z,17.71
2022-09-15T04:16:58.277Z,18.01
2022-09-15T04:22:00.867Z,17.86
2022-09-15T04:27:02.365Z,18.08
2022-09-15T04:32:03.849Z,18.28
2022-09-15T04:37:05.311Z,18.36
2022-09-15T04:42:06.977Z,18.50
2022-09-15T04:47:08.453Z,18.53
2022-09-15T04:52:10.126Z,18.06
2022-09-15T04:57:11.956Z,17.88
2022-09-15T05:02:13.445Z,17.81
2022-09-15T05:07:14.981Z,18.40
2022-09-15T05:12:17.402Z,18.08
2022-09-15T05:17:18.734Z,17.99
2022-09-15T05:22:20.300Z,17.90
2022-09-15T05:27:21.778Z,17.67
2022-09-15T05:32:23.245Z,17.56
2022-09-15T05:37:24.728Z,17.74
2022-09-15T05:42:26.347Z,17.77
2022-09-15T05:47:27.816Z,18.21
2022-09-15T05:52:29.618Z,18.57
2022-09-15T05:57:31.143Z,18.50
2022-09-15T06:02:32.668Z,18.45
2022-09-15T06:07:34.227Z,18.61
2022-09-15T06:12:36.040Z,18.63
2022-09-15T06:17:37.512Z,18.88
2022-09-15T06:22:39.006Z,18.61
2022-09-15T06:27:41.080Z,18.54
2022-09-15T06:32:47.419Z,18.63
2022-09-15T06:37:50.266Z,18.08
2022-09-15T06:42:55.868Z,17.89
2022-09-15T06:48:20.260Z,17.53
2022-09-15T06:53:18.782Z,17.29
2022-09-15T06:58:20.243Z,17.50
2022-09-15T07:03:21.963Z,17.43
2022-09-15T07:08:23.491Z,17.43
2022-09-15T07:13:25.045Z,17.51
2022-09-15T07:18:26.692Z,17.62
2022-09-15T07:23:28.188Z,17.88
2022-09-15T07:28:29.677Z,17.66
2022-09-15T07:33:31.482Z,17.80
2022-09-15T07:38:33.348Z,17.93
2022-09-15T07:43:34.842Z,18.07
2022-09-15T07:48:36.319Z,18.36
2022-09-15T07:53:37.790Z,18.40
2022-09-15T07:58:39.272Z,19.20
2022-09-15T08:03:42.713Z,19.07
2022-09-15T08:08:44.223Z,19.26
2022-09-15T08:13:46.693Z,19.12
2022-09-15T08:18:48.260Z,18.81
2022-09-15T08:23:51.578Z,18.90
2022-09-15T08:28:53.210Z,18.83
2022-09-15T08:33:55.071Z,18.83
2022-09-15T08:38:56.746Z,18.83
2022-09-15T08:44:22.988Z,19.47
2022-09-15T08:49:52.599Z,19.35
2022-09-15T08:54:55.982Z,18.89
2022-09-15T08:59:59.604Z,18.67
2022-09-15T09:05:13.121Z,18.86
2022-09-15T09:10:25.391Z,18.67
2022-09-15T09:15:31.202Z,17.84
2022-09-15T09:20:50.757Z,17.42
2022-09-15T09:25:52.238Z,17.47
2022-09-15T09:30:53.774Z,17.82
2022-09-15T09:35:55.481Z,18.01
2022-09-15T09:41:01.920Z,17.99
2022-09-15T09:46:14.955Z,17.91
2022-09-15T09:51:34.541Z,18.10
2022-09-15T09:56:36.018Z,18.16
2022-09-15T10:01:37.563Z,18.62
2022-09-15T10:06:39.093Z,18.79
2022-09-15T10:11:58.963Z,18.77
2022-09-15T10:17:14.074Z,19.41
2022-09-15T10:22:22.232Z,19.88
2022-09-15T10:27:34.574Z,19.79
2022-09-15T10:32:36.068Z,19.65
2022-09-15T10:37:54.555Z,19.67
2022-09-15T10:43:28.562Z,19.14
2022-09-15T10:48:32.969Z,19.14
2022-09-15T10:53:43.673Z,19.11
2022-09-15T10:59:03.670Z,19.35
2022-09-15T11:04:24.566Z,18.95
2022-09-15T11:09:38.679Z,19.19
2022-09-15T11:14:55.032Z,19.37
2022-09-15T11:20:10.891Z,19.47
2022-09-15T11:25:32.655Z,19.97
2022-09-15T11:30:37.648Z,19.97
2022-09-15T11:36:00.825Z,20.07
2022-09-15T11:41:25.873Z,19.93
2022-09-15T11:47:01.665Z,20.17
2022-09-15T11:52:08.207Z,20.30
2022-09-15T11:57:23.466Z,20.47
2022-09-15T12:02:36.943Z,20.24
2022-09-15T12:07:59.401Z,20.61
2022-09-15T12:13:00.921Z,20.88
2022-09-15T12:18:27.390Z,21.09
2022-09-15T12:23:41.030Z,20.87
2022-09-15T12:28:57.697Z,20.62
2022-09-15T12:34:06.783Z,20.07
2022-09-15T12:39:28.169Z,20.01
2022-09-15T12:44:32.223Z,20.12
2022-09-15T12:49:42.043Z,20.41
2022-09-15T12:54:43.627Z,20.40
2022-09-15T12:59:45.120Z,20.33
2022-09-15T13:04:52.556Z,20.34
2022-09-15T13:09:57.770Z,20.20
2022-09-15T13:15:01.326Z,20.22
2022-09-15T13:20:08.907Z,20.26
2022-09-15T13:25:14.557Z,19.86
2022-09-15T13:30:35.995Z,19.66
2022-09-15T13:35:40.210Z,19.85
2022-09-15T13:41:15.411Z,20.01
2022-09-15T13:46:39.742Z,19.50
2022-09-15T13:51:41.586Z,19.51
2022-09-15T13:56:43.128Z,19.58
2022-09-15T14:01:44.878Z,19.43
2022-09-15T14:06:50.526Z,19.55
2022-09-15T14:11:53.196Z,19.36
2022-09-15T14:16:56.178Z,19.53
2022-09-15T14:21:58.826Z,19.55
2022-09-15T14:27:02.880Z,19.61
2022-09-15T14:32:04.487Z,19.60
2022-09-15T14:37:07.592Z,19.25
2022-09-15T14:42:41.295Z,18.53
2022-09-15T14:47:43.400Z,18.43
2022-09-15T14:52:58.760Z,18.52
2022-09-15T14:58:20.099Z,18.68
2022-09-15T15:03:33.482Z,18.65
2022-09-15T15:08:39.957Z,19.01
2022-09-15T15:13:42.630Z,18.88
2022-09-15T15:18:44.375Z,18.91
2022-09-15T15:23:46.934Z,19.07
2022-09-15T15:28:48.668Z,19.47
2022-09-15T15:33:53.560Z,19.08
2022-09-15T15:38:56.826Z,19.08
2022-09-15T15:44:07.685Z,18.92
2022-09-15T15:49:13.297Z,18.63
2022-09-15T15:54:14.843Z,19.20
2022-09-15T15:59:16.568Z,18.76
2022-09-15T16:04:18.031Z,18.65
2022-09-15T16:09:20.731Z,18.34
2022-09-15T16:14:22.278Z,18.15
2022-09-15T16:19:23.816Z,18.28
2022-09-15T16:24:25.350Z,18.33
2022-09-15T16:29:31.269Z,18.44
2022-09-15T16:34:32.785Z,18.22
2022-09-15T16:39:34.313Z,18.39
2022-09-15T16:44:35.834Z,18.42
2022-09-15T16:49:39.332Z,18.47
2022-09-15T16:54:40.819Z,18.03
2022-09-15T16:59:42.291Z,17.91
2022-09-15T17:04:43.776Z,17.84
2022-09-15T17:09:46.892Z,18.27
2022-09-15T17:14:48.384Z,18.14
2022-09-15T17:19:49.918Z,18.07
2022-09-15T17:24:51.410Z,17.78
2022-09-15T17:29:52.923Z,17.72
2022-09-15T17:34:54.526Z,17.50
2022-09-15T17:39:58.915Z,17.67
2022-09-15T17:45:01.089Z,17.66
2022-09-15T17:50:02.606Z,17.88
2022-09-15T17:55:13.169Z,17.57
2022-09-15T18:00:15.485Z,17.62
2022-09-15T18:05:35.777Z,17.45
2022-09-15T18:10:37.266Z,17.17
2022-09-15T18:15:38.761Z,17.04
2022-09-15T18:20:40.299Z,17.01
2022-09-15T18:25:41.959Z,17.16
2022-09-15T18:30:45.093Z,17.49
2022-09-15T18:35:47.867Z,17.83
2022-09-15T18:40:53.130Z,17.41
2022-09-15T18:45:58.739Z,17.50
2022-09-15T18:51:00.273Z,17.29
2022-09-15T18:56:01.879Z,17.43
2022-09-15T19:01:04.074Z,17.94
2022-09-15T19:06:06.253Z,17.59
2022-09-15T19:11:07.718Z,17.24
2022-09-15T19:16:09.597Z,17.18
2022-09-15T19:21:11.630Z,17.53
2022-09-15T19:26:17.014Z,17.59
2022-09-15T19:31:18.554Z,17.84
2022-09-15T19:36:28.773Z,17.52
2022-09-15T19:41:30.747Z,17.17
2022-09-15T19:46:32.209Z,17.15
2022-09-15T19:51:33.707Z,17.36
2022-09-15T19:56:35.305Z,17.38
2022-09-15T20:01:37.040Z,17.27
2022-09-15T20:06:38.765Z,17.28
2022-09-15T20:11:40.251Z,17.22
2022-09-15T20:16:41.795Z,17.65
2022-09-15T20:21:50.247Z,17.41
2022-09-15T20:26:52.655Z,17.25
2022-09-15T20:31:54.265Z,16.92
2022-09-15T20:36:55.739Z,17.28
2022-09-15T20:41:58.018Z,17.06
2022-09-15T20:46:59.500Z,17.20
2022-09-15T20:52:01.010Z,16.96
2022-09-15T20:57:02.475Z,16.84
2022-09-15T21:02:05.862Z,17.59
2022-09-15T21:07:07.406Z,17.17
2022-09-15T21:12:09.630Z,17.07
2022-09-15T21:17:11.123Z,16.99
2022-09-15T21:22:12.582Z,17.11
2022-09-15T21:27:26.842Z,16.80
2022-09-15T21:32:29.375Z,16.92
2022-09-15T21:37:31.929Z,17.05
2022-09-15T21:42:33.439Z,16.78
2022-09-15T21:47:34.902Z,17.04
2022-09-15T21:52:37.082Z,17.37
2022-09-15T21:57:38.555Z,17.29
2022-09-15T22:02:40.017Z,16.93
2022-09-15T22:07:41.494Z,16.90
2022-09-15T22:12:42.995Z,16.85
2022-09-15T22:17:44.454Z,16.46
2022-09-15T22:22:45.955Z,16.36
2022-09-15T22:27:47.414Z,16.22
2022-09-15T22:32:48.888Z,16.13
2022-09-15T22:37:50.363Z,16.16
2022-09-15T22:42:51.832Z,16.30
2022-09-15T22:47:53.510Z,16.41
2022-09-15T22:52:55.774Z,16.30
2022-09-15T22:57:57.651Z,16.37
2022-09-15T23:02:59.593Z,16.41
2022-09-15T23:08:01.098Z,16.55
2022-09-15T23:13:02.557Z,16.35
2022-09-15T23:18:04.035Z,16.13
2022-09-15T23:23:06.224Z,16.30
2022-09-15T23:28:07.688Z,15.97
2022-09-15T23:33:09.158Z,16.17
2022-09-15T23:38:10.633Z,16.21
2022-09-15T23:43:12.171Z,16.71
2022-09-15T23:48:13.798Z,16.42
2022-09-15T23:53:15.272Z,16.25
2022-09-15T23:58:16.766Z,16.27
